Time;durP1;ratioP1;P1;durP2;ratioP2;P2;SDS_P1;SDS_P2;PMS_P1;PMS_P2;Temp;Humidity;BMP_temperature;BMP_pressure;BME280_temperature;BME280_humidity;BME280_pressure;Samples;Min_cycle;Max_cycle;Signal;HPM_P1;HPM_P2
2021/10/04 00:01:16;;;;;;;9.80;4.22;;;11.60;99.90;;;;;;5098628;28;20620;-74
2021/10/04 00:03:41;;;;;;;6.80;3.97;;;11.60;99.90;;;;;;5099664;28;20507;-74
2021/10/04 00:06:07;;;;;;;14.73;6.72;;;11.60;99.90;;;;;;5099748;28;20372;-74
2021/10/04 00:08:33;;;;;;;7.70;4.03;;;11.60;99.90;;;;;;5098151;28;20036;-75
2021/10/04 00:10:59;;;;;;;10.10;4.75;;;11.60;99.90;;;;;;5099540;28;20036;-74
2021/10/04 00:13:25;;;;;;;9.50;4.32;;;11.60;99.90;;;;;;5099535;28;20040;-74
2021/10/04 00:15:51;;;;;;;11.23;5.00;;;11.60;99.90;;;;;;5099854;28;20043;-74
2021/10/04 00:18:18;;;;;;;15.02;4.30;;;11.60;99.90;;;;;;5099942;28;20111;-74
2021/10/04 00:20:44;;;;;;;7.53;4.05;;;11.60;99.90;;;;;;5099721;28;20040;-74
2021/10/04 00:23:10;;;;;;;6.88;4.55;;;11.60;99.90;;;;;;5099471;28;20487;-74
2021/10/04 00:25:36;;;;;;;7.88;4.80;;;11.60;99.90;;;;;;5099456;28;20071;-74
2021/10/04 00:28:03;;;;;;;7.85;4.22;;;11.60;99.90;;;;;;5099728;28;20036;-74
2021/10/04 00:30:29;;;;;;;8.60;4.15;;;11.50;99.90;;;;;;5099614;28;20058;-75
2021/10/04 00:32:54;;;;;;;11.13;5.00;;;11.60;99.90;;;;;;5099703;28;20036;-74
2021/10/04 00:35:22;;;;;;;6.10;4.25;;;11.60;99.90;;;;;;5099443;28;20049;-74
2021/10/04 00:37:48;;;;;;;7.20;4.35;;;11.60;99.90;;;;;;5099666;28;20048;-74
2021/10/04 00:40:21;;;;;;;7.60;4.40;;;11.60;99.90;;;;;;5097720;28;20039;-74
2021/10/04 00:42:47;;;;;;;7.55;4.13;;;11.60;99.90;;;;;;5099513;28;20119;-74
2021/10/04 00:45:13;;;;;;;13.38;5.45;;;11.60;99.90;;;;;;5095034;28;20077;-75
2021/10/04 00:47:40;;;;;;;7.88;4.13;;;11.60;99.90;;;;;;5096089;28;20047;-75
2021/10/04 00:50:07;;;;;;;8.70;3.88;;;11.60;99.90;;;;;;5094530;28;20056;-75
2021/10/04 00:52:33;;;;;;;11.57;4.25;;;11.60;99.90;;;;;;5095953;28;20036;-74
2021/10/04 00:54:58;;;;;;;9.63;3.80;;;11.50;99.90;;;;;;5094923;28;20036;-74
2021/10/04 00:57:24;;;;;;;10.07;4.95;;;11.60;99.90;;;;;;5095676;28;20173;-74
2021/10/04 00:59:50;;;;;;;9.10;3.78;;;11.50;99.90;;;;;;5095921;28;20046;-75
2021/10/04 01:02:15;;;;;;;8.77;4.10;;;11.50;99.90;;;;;;5094467;28;20063;-75
2021/10/04 01:04:44;;;;;;;10.10;3.67;;;11.60;99.90;;;;;;5095847;28;20043;-74
2021/10/04 01:07:10;;;;;;;9.40;3.63;;;11.50;99.90;;;;;;5095972;28;20036;-74
2021/10/04 01:09:35;;;;;;;7.63;4.00;;;11.60;99.90;;;;;;5095241;28;20055;-74
2021/10/04 01:12:01;;;;;;;8.73;4.07;;;11.50;99.90;;;;;;5094238;28;20036;-74
2021/10/04 01:14:27;;;;;;;11.60;4.15;;;11.50;99.90;;;;;;5095880;28;20028;-74
2021/10/04 01:16:53;;;;;;;5.80;3.58;;;11.50;99.90;;;;;;5094337;28;20412;-74
2021/10/04 01:19:19;;;;;;;9.63;4.45;;;11.60;99.90;;;;;;5095165;28;20087;-75
2021/10/04 01:21:45;;;;;;;7.57;3.85;;;11.60;99.90;;;;;;5095396;28;20456;-74
2021/10/04 01:24:14;;;;;;;10.95;3.83;;;11.60;99.90;;;;;;5094083;28;20039;-74
2021/10/04 01:26:40;;;;;;;9.38;3.95;;;11.50;99.90;;;;;;5095570;28;20083;-74
2021/10/04 01:29:06;;;;;;;5.35;3.10;;;11.50;99.90;;;;;;5095016;28;20068;-75
2021/10/04 01:31:32;;;;;;;8.75;3.60;;;11.60;99.90;;;;;;5093901;28;20489;-74
2021/10/04 01:33:58;;;;;;;12.48;3.67;;;11.50;99.90;;;;;;5095842;28;20051;-74
2021/10/04 01:36:28;;;;;;;5.55;3.50;;;11.60;99.90;;;;;;5095462;28;20082;-74
2021/10/04 01:38:54;;;;;;;8.27;3.72;;;11.60;99.90;;;;;;5094960;28;20071;-74
2021/10/04 01:41:20;;;;;;;8.95;3.83;;;11.60;99.90;;;;;;5094017;28;20501;-74
2021/10/04 01:43:46;;;;;;;9.35;3.75;;;11.60;99.90;;;;;;5093829;28;20047;-74
2021/10/04 01:46:11;;;;;;;11.73;3.42;;;11.60;99.90;;;;;;5094838;28;20066;-75
2021/10/04 01:48:37;;;;;;;8.73;3.45;;;11.60;99.90;;;;;;5094731;28;20096;-75
2021/10/04 01:51:03;;;;;;;7.20;3.42;;;11.60;99.90;;;;;;5094950;28;20115;-75
2021/10/04 01:53:29;;;;;;;7.75;3.65;;;11.60;99.90;;;;;;5094907;28;20032;-74
2021/10/04 01:55:55;;;;;;;10.68;4.30;;;11.60;99.90;;;;;;5094701;28;20040;-74
2021/10/04 01:58:21;;;;;;;8.23;3.47;;;11.60;99.90;;;;;;5094889;28;20122;-74
2021/10/04 02:00:48;;;;;;;11.50;4.70;;;11.60;99.90;;;;;;5094400;28;20170;-74
2021/10/04 02:03:13;;;;;;;11.70;3.30;;;11.50;99.90;;;;;;5094597;28;20043;-74
2021/10/04 02:05:39;;;;;;;6.55;3.75;;;11.50;99.90;;;;;;5093663;28;20040;-74
2021/10/04 02:08:05;;;;;;;7.07;3.92;;;11.50;99.90;;;;;;5094707;28;20040;-74
2021/10/04 02:10:37;;;;;;;6.07;3.05;;;11.50;99.90;;;;;;5094790;28;20097;-75
2021/10/04 02:13:05;;;;;;;8.30;2.72;;;11.50;99.90;;;;;;5094854;28;20123;-74
2021/10/04 02:15:31;;;;;;;11.43;3.53;;;11.50;99.90;;;;;;5094463;28;20447;-74
2021/10/04 02:17:58;;;;;;;9.45;4.07;;;11.50;99.90;;;;;;5094197;28;20454;-74
2021/10/04 02:20:27;;;;;;;5.38;3.05;;;11.50;99.90;;;;;;5094134;28;20035;-74
2021/10/04 02:22:54;;;;;;;6.30;3.03;;;11.50;99.90;;;;;;5093197;28;20101;-75
2021/10/04 02:25:20;;;;;;;7.55;3.08;;;11.50;99.90;;;;;;5094293;28;20044;-74
2021/10/04 02:27:46;;;;;;;9.02;3.15;;;11.50;99.90;;;;;;5094131;28;20383;-73
2021/10/04 02:30:19;;;;;;;8.55;3.38;;;11.50;99.90;;;;;;5094044;28;20078;-74
2021/10/04 02:32:45;;;;;;;5.13;3.37;;;11.60;99.90;;;;;;5094163;28;20039;-74
2021/10/04 02:35:10;;;;;;;7.65;3.40;;;11.50;99.90;;;;;;5092769;28;20036;-74
2021/10/04 02:37:36;;;;;;;8.77;3.30;;;11.60;99.90;;;;;;5093109;28;20089;-74
2021/10/04 02:40:04;;;;;;;8.18;3.03;;;11.50;99.90;;;;;;5093628;28;20550;-74
2021/10/04 02:42:31;;;;;;;5.97;3.00;;;11.50;99.90;;;;;;5092802;28;20044;-74
2021/10/04 02:44:56;;;;;;;6.38;3.20;;;11.50;99.90;;;;;;5094191;28;20069;-74
2021/10/04 02:47:22;;;;;;;6.53;3.42;;;11.50;99.90;;;;;;5093791;28;20043;-74
2021/10/04 02:49:48;;;;;;;6.55;3.88;;;11.50;99.90;;;;;;5093703;28;20119;-74
2021/10/04 02:52:16;;;;;;;9.50;2.72;;;11.50;99.90;;;;;;5093802;28;20040;-74
2021/10/04 02:54:43;;;;;;;6.00;3.30;;;11.40;99.90;;;;;;5093841;28;20044;-74
2021/10/04 02:57:08;;;;;;;10.10;3.20;;;11.40;99.90;;;;;;5093961;28;20032;-74
2021/10/04 02:59:34;;;;;;;7.00;2.63;;;11.40;99.90;;;;;;5092152;28;20499;-74
2021/10/04 03:01:59;;;;;;;6.72;2.25;;;11.40;99.90;;;;;;5092501;28;20048;-74
2021/10/04 03:04:25;;;;;;;8.10;2.97;;;11.50;99.90;;;;;;5092439;28;20533;-74
2021/10/04 03:06:51;;;;;;;8.48;2.85;;;11.40;99.90;;;;;;5092943;28;20032;-74
2021/10/04 03:09:16;;;;;;;7.43;3.33;;;11.40;99.90;;;;;;5092927;28;20047;-74
2021/10/04 03:11:42;;;;;;;6.93;2.88;;;11.50;99.90;;;;;;5091933;28;20115;-74
2021/10/04 03:14:08;;;;;;;6.25;3.05;;;11.40;99.90;;;;;;5093349;28;20032;-74
2021/10/04 03:16:34;;;;;;;6.13;2.90;;;11.40;99.90;;;;;;5093254;28;20476;-74
2021/10/04 03:18:59;;;;;;;5.85;2.80;;;11.50;99.90;;;;;;5093275;28;20081;-74
2021/10/04 03:21:25;;;;;;;8.68;2.83;;;11.50;99.90;;;;;;5093392;28;20040;-74
2021/10/04 03:23:51;;;;;;;8.25;2.60;;;11.50;99.90;;;;;;5093283;28;20065;-74
2021/10/04 03:26:16;;;;;;;6.07;2.40;;;11.50;99.90;;;;;;5091920;28;20039;-74
2021/10/04 03:28:42;;;;;;;5.72;2.83;;;11.50;99.90;;;;;;5092979;28;20113;-74
2021/10/04 03:31:07;;;;;;;8.23;2.53;;;11.50;99.90;;;;;;5093076;28;20051;-74
2021/10/04 03:33:33;;;;;;;9.27;2.97;;;11.40;99.90;;;;;;5092152;28;20063;-74
2021/10/04 03:35:59;;;;;;;5.20;2.63;;;11.50;99.90;;;;;;5075049;28;20068;-74
2021/10/04 03:38:25;;;;;;;8.55;3.25;;;11.40;99.90;;;;;;5093258;28;20075;-75
2021/10/04 03:40:50;;;;;;;4.13;2.00;;;11.40;99.90;;;;;;5092865;28;20036;-74
2021/10/04 03:43:16;;;;;;;5.18;2.20;;;11.40;99.90;;;;;;5092945;28;20044;-74
2021/10/04 03:45:42;;;;;;;6.85;2.20;;;11.40;99.90;;;;;;5093170;28;20122;-74
2021/10/04 03:48:07;;;;;;;5.15;2.28;;;11.50;99.90;;;;;;5093010;28;20123;-74
2021/10/04 03:50:33;;;;;;;7.38;3.25;;;11.40;99.90;;;;;;5091597;28;20067;-74
2021/10/04 03:52:59;;;;;;;7.82;2.50;;;11.40;99.90;;;;;;5093118;28;20089;-73
2021/10/04 03:55:24;;;;;;;3.28;1.77;;;11.40;99.90;;;;;;5092937;28;20447;-74
2021/10/04 03:57:50;;;;;;;7.90;2.10;;;11.40;99.90;;;;;;5093118;28;20157;-74
2021/10/04 04:00:20;;;;;;;6.65;2.40;;;11.50;99.90;;;;;;5092743;28;20040;-74
2021/10/04 04:02:46;;;;;;;11.48;2.70;;;11.40;99.90;;;;;;5092902;28;20127;-74
2021/10/04 04:05:13;;;;;;;9.27;2.25;;;11.40;99.90;;;;;;5093189;28;20392;-73
2021/10/04 04:07:39;;;;;;;7.72;2.40;;;11.40;99.90;;;;;;5092833;28;20089;-74
2021/10/04 04:10:07;;;;;;;7.50;2.03;;;11.40;99.90;;;;;;5091620;28;20372;-74
2021/10/04 04:12:33;;;;;;;4.72;1.80;;;11.40;99.90;;;;;;5091099;28;20044;-74
2021/10/04 04:14:59;;;;;;;6.63;1.95;;;11.40;99.90;;;;;;5091420;28;20040;-74
2021/10/04 04:17:24;;;;;;;5.47;1.73;;;11.40;99.90;;;;;;5092619;28;20074;-74
2021/10/04 04:19:50;;;;;;;6.13;2.45;;;11.40;99.90;;;;;;5093295;28;20097;-73
2021/10/04 04:22:16;;;;;;;6.30;1.80;;;11.40;99.90;;;;;;5095432;28;20123;-74
2021/10/04 04:24:42;;;;;;;5.22;1.83;;;11.40;99.90;;;;;;5097319;28;20050;-74
2021/10/04 04:27:08;;;;;;;10.45;2.20;;;11.40;99.90;;;;;;5096846;28;20177;-74
2021/10/04 04:29:38;;;;;;;6.13;2.00;;;11.30;99.90;;;;;;5096345;28;20544;-74
2021/10/04 04:32:06;;;;;;;5.18;1.90;;;11.30;99.90;;;;;;5078573;28;20422;-74
2021/10/04 04:34:32;;;;;;;7.72;2.25;;;11.40;99.90;;;;;;5095548;28;20441;-74
2021/10/04 04:36:58;;;;;;;8.82;2.03;;;11.40;99.90;;;;;;5096416;28;20126;-74
2021/10/04 04:39:24;;;;;;;6.03;1.65;;;11.40;99.90;;;;;;5095944;28;20044;-74
2021/10/04 04:41:50;;;;;;;4.28;1.80;;;11.40;99.90;;;;;;5096438;28;20040;-74
2021/10/04 04:44:15;;;;;;;6.45;1.75;;;11.40;99.90;;;;;;5096279;28;20082;-72
2021/10/04 04:46:41;;;;;;;4.78;1.83;;;11.40;99.90;;;;;;5096593;28;20115;-72
2021/10/04 04:49:07;;;;;;;7.53;2.28;;;11.40;99.90;;;;;;5094607;28;20044;-73
2021/10/04 04:51:32;;;;;;;5.07;1.65;;;11.40;99.90;;;;;;5094990;28;20124;-73
2021/10/04 04:53:58;;;;;;;6.60;2.47;;;11.40;99.90;;;;;;5096331;28;20553;-73
2021/10/04 04:56:23;;;;;;;4.82;2.05;;;11.40;99.90;;;;;;5096132;28;20035;-73
2021/10/04 04:58:49;;;;;;;6.28;1.90;;;11.40;99.90;;;;;;5095744;28;20040;-73
2021/10/04 05:01:15;;;;;;;5.20;1.73;;;11.40;99.90;;;;;;5095850;28;20043;-72
2021/10/04 05:03:40;;;;;;;4.55;1.83;;;11.40;99.90;;;;;;5094631;28;20074;-72
2021/10/04 05:06:06;;;;;;;4.15;1.55;;;11.40;99.90;;;;;;5094655;28;20423;-72
2021/10/04 05:08:32;;;;;;;4.50;1.92;;;11.30;99.90;;;;;;5094149;28;20044;-73
2021/10/04 05:10:57;;;;;;;4.13;1.80;;;11.30;99.90;;;;;;5094774;28;20047;-72
2021/10/04 05:13:23;;;;;;;6.30;1.95;;;11.40;99.90;;;;;;5095985;28;20063;-72
2021/10/04 05:15:49;;;;;;;6.38;2.28;;;11.30;99.90;;;;;;5095911;28;20048;-72
2021/10/04 05:18:14;;;;;;;5.32;1.67;;;11.30;99.90;;;;;;5095793;28;20078;-72
2021/10/04 05:20:41;;;;;;;2.45;1.45;;;11.30;99.90;;;;;;5095297;28;20048;-72
2021/10/04 05:23:06;;;;;;;6.85;1.83;;;11.20;99.90;;;;;;5095667;28;20135;-72
2021/10/04 05:25:32;;;;;;;3.75;1.95;;;11.30;99.90;;;;;;5095369;28;20067;-72
2021/10/04 05:27:58;;;;;;;5.03;1.70;;;11.30;99.90;;;;;;5095759;28;20379;-72
2021/10/04 05:30:24;;;;;;;4.97;1.73;;;11.30;99.90;;;;;;5094918;28;20090;-72
2021/10/04 05:32:49;;;;;;;6.05;2.35;;;11.30;99.90;;;;;;5095154;28;20039;-72
2021/10/04 05:35:15;;;;;;;6.78;2.13;;;11.30;99.90;;;;;;5095421;28;20039;-71
2021/10/04 05:37:41;;;;;;;6.78;2.10;;;11.30;99.90;;;;;;5095475;28;20042;-70
2021/10/04 05:40:08;;;;;;;6.10;2.05;;;11.30;99.90;;;;;;5094827;28;20468;-71
2021/10/04 05:42:34;;;;;;;4.45;1.92;;;11.20;99.90;;;;;;5093611;28;20052;-71
2021/10/04 05:45:01;;;;;;;4.53;1.70;;;11.30;99.90;;;;;;5093928;28;20044;-71
2021/10/04 05:47:26;;;;;;;4.90;1.67;;;11.30;99.90;;;;;;5095209;28;20051;-71
2021/10/04 05:49:52;;;;;;;7.38;2.10;;;11.30;99.90;;;;;;5094482;28;20044;-71
2021/10/04 05:52:18;;;;;;;8.27;2.05;;;11.30;99.90;;;;;;5093709;28;20044;-71
2021/10/04 05:54:44;;;;;;;5.18;2.20;;;11.20;99.90;;;;;;5095263;28;20085;-71
2021/10/04 05:57:10;;;;;;;4.90;2.25;;;11.30;99.90;;;;;;5094952;28;20392;-71
2021/10/04 05:59:35;;;;;;;9.98;2.67;;;11.30;99.90;;;;;;5094467;28;20082;-70
2021/10/04 06:02:01;;;;;;;9.38;3.28;;;11.30;99.90;;;;;;5094751;28;20494;-71
2021/10/04 06:04:26;;;;;;;5.22;2.00;;;11.30;99.90;;;;;;5094866;28;20044;-71
2021/10/04 06:06:52;;;;;;;4.53;2.17;;;11.20;99.90;;;;;;5093449;28;20085;-71
2021/10/04 06:09:18;;;;;;;6.45;1.95;;;11.30;99.90;;;;;;5094849;28;20132;-71
2021/10/04 06:11:43;;;;;;;5.78;2.05;;;11.30;99.90;;;;;;5094560;28;20032;-71
2021/10/04 06:14:09;;;;;;;5.53;1.98;;;11.30;99.90;;;;;;5093710;28;20077;-71
2021/10/04 06:16:35;;;;;;;5.68;1.60;;;11.30;99.90;;;;;;5094629;28;20035;-71
2021/10/04 06:19:01;;;;;;;5.95;2.20;;;11.30;99.90;;;;;;5094448;28;20504;-71
2021/10/04 06:21:26;;;;;;;6.78;2.00;;;11.40;99.90;;;;;;5093030;28;20117;-71
2021/10/04 06:23:52;;;;;;;4.97;2.13;;;11.30;99.90;;;;;;5094488;28;20368;-71
2021/10/04 06:26:18;;;;;;;6.70;1.80;;;11.40;99.90;;;;;;5094495;28;20046;-71
2021/10/04 06:28:44;;;;;;;5.55;2.28;;;11.40;99.90;;;;;;5092651;28;20407;-71
2021/10/04 06:31:09;;;;;;;3.33;1.88;;;11.40;99.90;;;;;;5093095;28;20051;-71
2021/10/04 06:33:35;;;;;;;4.43;1.90;;;11.50;99.90;;;;;;5093122;28;20043;-71
2021/10/04 06:36:00;;;;;;;4.32;2.08;;;11.50;99.90;;;;;;5094006;28;20036;-71
2021/10/04 06:38:26;;;;;;;3.90;1.83;;;11.40;99.90;;;;;;5094354;28;20050;-71
2021/10/04 06:40:52;;;;;;;4.82;2.13;;;11.50;99.90;;;;;;5092452;28;20066;-71
2021/10/04 06:43:17;;;;;;;5.57;2.05;;;11.50;99.90;;;;;;5092382;28;20051;-71
2021/10/04 06:45:43;;;;;;;5.13;1.92;;;11.50;99.90;;;;;;5093963;28;20032;-71
2021/10/04 06:48:08;;;;;;;3.25;1.90;;;11.50;99.90;;;;;;5093709;28;20507;-71
2021/10/04 06:50:34;;;;;;;5.22;1.88;;;11.50;99.90;;;;;;5093633;28;20032;-71
2021/10/04 06:53:00;;;;;;;7.55;2.67;;;11.50;99.90;;;;;;5092814;28;20032;-71
2021/10/04 06:55:25;;;;;;;5.30;1.90;;;11.50;99.90;;;;;;5094114;28;20471;-71
2021/10/04 06:57:51;;;;;;;5.20;2.28;;;11.50;99.90;;;;;;5087956;28;20039;-71
2021/10/04 07:00:20;;;;;;;7.47;2.17;;;11.50;99.90;;;;;;5073211;28;20037;-71
2021/10/04 07:02:51;;;;;;;8.45;2.13;;;11.50;99.90;;;;;;5072560;28;20405;-71
2021/10/04 07:05:18;;;;;;;6.25;2.40;;;11.50;99.90;;;;;;5073804;28;20067;-71
2021/10/04 07:07:48;;;;;;;5.65;2.10;;;11.60;99.90;;;;;;5073380;28;20112;-71
2021/10/04 07:10:14;;;;;;;3.92;2.00;;;11.60;99.90;;;;;;5073089;28;20393;-71
2021/10/04 07:12:40;;;;;;;8.20;2.42;;;11.60;99.90;;;;;;5073538;28;20508;-71
2021/10/04 07:15:06;;;;;;;5.88;1.95;;;11.60;99.90;;;;;;5072004;28;20040;-71
2021/10/04 07:17:32;;;;;;;7.93;2.42;;;11.70;99.90;;;;;;5073238;28;20033;-71
2021/10/04 07:19:57;;;;;;;4.88;1.80;;;11.70;99.90;;;;;;5071917;28;20412;-71
2021/10/04 07:22:23;;;;;;;5.43;1.70;;;11.70;99.90;;;;;;5073734;28;20036;-71
2021/10/04 07:24:49;;;;;;;7.05;1.80;;;11.70;99.90;;;;;;5073565;28;20046;-71
2021/10/04 07:27:16;;;;;;;7.35;2.38;;;11.70;99.90;;;;;;5073144;28;20067;-71
2021/10/04 07:29:42;;;;;;;7.65;1.73;;;11.70;99.90;;;;;;5072809;28;20040;-71
2021/10/04 07:32:07;;;;;;;7.10;1.65;;;11.80;99.90;;;;;;5073235;28;20040;-71
2021/10/04 07:34:34;;;;;;;7.85;1.92;;;11.80;99.90;;;;;;5071999;28;20043;-71
2021/10/04 07:37:00;;;;;;;8.02;2.40;;;11.80;99.90;;;;;;5073132;28;20033;-71
2021/10/04 07:39:26;;;;;;;3.45;2.10;;;11.80;99.90;;;;;;5072914;28;20111;-71
2021/10/04 07:41:52;;;;;;;5.20;1.92;;;11.80;99.90;;;;;;5071809;28;20059;-71
2021/10/04 07:44:20;;;;;;;6.60;2.00;;;11.90;99.90;;;;;;5073224;28;20044;-71
2021/10/04 07:46:51;;;;;;;3.05;2.22;;;11.90;99.90;;;;;;5073028;28;20049;-71
2021/10/04 07:49:17;;;;;;;6.75;2.63;;;11.80;99.90;;;;;;5071524;28;20392;-71
2021/10/04 07:51:43;;;;;;;4.35;1.70;;;11.90;99.90;;;;;;5073134;28;20397;-71
2021/10/04 07:54:09;;;;;;;2.67;2.00;;;11.90;99.90;;;;;;5075993;28;20047;-71
2021/10/04 07:56:38;;;;;;;4.60;2.10;;;11.90;99.90;;;;;;5077117;28;20036;-71
2021/10/04 07:59:06;;;;;;;4.53;2.17;;;11.90;99.90;;;;;;5076631;28;20044;-71
2021/10/04 08:01:32;;;;;;;3.75;1.67;;;11.90;99.90;;;;;;5075664;28;20044;-71
2021/10/04 08:03:58;;;;;;;7.50;2.13;;;11.90;99.90;;;;;;5077185;28;20071;-71
2021/10/04 08:06:26;;;;;;;6.90;2.38;;;11.90;99.90;;;;;;5077109;28;20040;-71
2021/10/04 08:08:52;;;;;;;5.63;2.47;;;12.00;99.90;;;;;;5075126;28;20063;-71
2021/10/04 08:11:18;;;;;;;4.13;2.05;;;12.00;99.90;;;;;;5076771;28;20048;-71
2021/10/04 08:13:45;;;;;;;5.57;2.53;;;12.10;99.90;;;;;;5076831;28;20040;-70
2021/10/04 08:16:12;;;;;;;6.40;2.03;;;12.10;99.90;;;;;;5076753;28;20040;-71
2021/10/04 08:18:37;;;;;;;5.22;2.17;;;12.10;99.90;;;;;;5076390;28;20048;-70
2021/10/04 08:21:03;;;;;;;4.45;2.10;;;12.10;99.90;;;;;;5075955;28;20060;-70
2021/10/04 08:23:29;;;;;;;6.80;2.40;;;12.10;99.90;;;;;;5076772;28;20079;-70
2021/10/04 08:25:55;;;;;;;6.15;1.95;;;12.10;99.90;;;;;;5076423;28;20041;-70
2021/10/04 08:28:20;;;;;;;8.25;2.47;;;12.20;99.90;;;;;;5076522;28;20084;-70
2021/10/04 08:30:46;;;;;;;3.90;1.95;;;12.20;99.90;;;;;;5075990;28;20045;-70
2021/10/04 08:33:12;;;;;;;9.45;2.30;;;12.20;99.90;;;;;;5076362;28;20035;-69
2021/10/04 08:35:38;;;;;;;4.97;2.33;;;12.30;99.90;;;;;;5076212;28;20500;-70
2021/10/04 08:38:03;;;;;;;11.52;2.17;;;12.30;99.90;;;;;;5075024;28;20409;-70
2021/10/04 08:40:29;;;;;;;9.07;2.35;;;12.30;99.90;;;;;;5074794;28;20153;-70
2021/10/04 08:42:55;;;;;;;6.45;1.90;;;12.30;99.90;;;;;;5075999;28;20040;-70
2021/10/04 08:45:26;;;;;;;7.95;2.10;;;12.30;99.90;;;;;;5075041;28;20083;-70
2021/10/04 08:47:58;;;;;;;6.20;2.08;;;12.40;99.90;;;;;;5075875;28;20504;-70
2021/10/04 08:50:25;;;;;;;5.53;2.08;;;12.50;99.90;;;;;;5075588;28;20455;-70
2021/10/04 08:52:50;;;;;;;6.15;2.42;;;12.80;99.90;;;;;;5075785;28;20393;-70
2021/10/04 08:55:18;;;;;;;3.58;1.90;;;13.10;99.90;;;;;;5075734;28;20047;-70
2021/10/04 08:57:44;;;;;;;6.45;2.13;;;13.40;99.90;;;;;;5074796;28;20041;-70
2021/10/04 09:00:11;;;;;;;2.95;1.67;;;13.50;99.90;;;;;;5074392;28;20070;-70
2021/10/04 09:02:37;;;;;;;5.60;2.22;;;13.70;99.90;;;;;;5074902;28;20342;-70
2021/10/04 09:05:15;;;;;;;6.20;1.85;;;13.80;99.90;;;;;;5075166;28;20359;-70
2021/10/04 09:07:48;;;;;;;3.15;2.00;;;14.00;99.90;;;;;;5075618;28;20570;-70
2021/10/04 09:10:17;;;;;;;4.00;1.83;;;14.10;99.90;;;;;;5075346;28;20554;-70
2021/10/04 09:12:46;;;;;;;8.88;2.05;;;14.20;99.90;;;;;;5075818;28;20101;-70
2021/10/04 09:15:29;;;;;;;5.70;1.75;;;14.30;99.90;;;;;;5075865;28;20048;-70
2021/10/04 09:17:55;;;;;;;7.22;1.90;;;14.40;99.90;;;;;;5075753;28;20146;-70
2021/10/04 09:20:21;;;;;;;5.97;1.77;;;14.50;99.90;;;;;;5074920;28;20036;-70
2021/10/04 09:22:47;;;;;;;10.27;2.15;;;14.60;99.90;;;;;;5075571;28;20032;-70
2021/10/04 09:25:13;;;;;;;4.90;1.63;;;14.70;99.90;;;;;;5075509;28;20036;-70
2021/10/04 09:27:42;;;;;;;6.82;2.10;;;14.70;99.90;;;;;;5075450;28;20048;-70
2021/10/04 09:30:12;;;;;;;9.10;2.58;;;14.80;99.90;;;;;;5073897;28;20047;-70
2021/10/04 09:32:40;;;;;;;5.20;1.50;;;14.80;99.90;;;;;;5074202;28;20117;-70
2021/10/04 09:35:27;;;;;;;4.45;1.65;;;14.90;99.90;;;;;;5075086;28;20496;-70
2021/10/04 09:37:58;;;;;;;8.10;1.92;;;14.90;99.90;;;;;;5075259;28;20063;-70
2021/10/04 09:40:45;;;;;;;3.45;1.70;;;14.90;99.90;;;;;;5073458;28;20119;-70
2021/10/04 09:43:26;;;;;;;3.67;2.00;;;15.00;99.90;;;;;;5075071;28;20029;-70
2021/10/04 09:46:04;;;;;;;3.35;1.50;;;15.00;99.90;;;;;;5073637;28;20044;-70
2021/10/04 09:48:30;;;;;;;5.35;1.88;;;15.00;99.90;;;;;;5074380;28;20191;-70
2021/10/04 09:50:56;;;;;;;4.65;1.42;;;15.00;99.90;;;;;;5075376;28;20421;-70
2021/10/04 09:53:22;;;;;;;5.90;1.63;;;15.10;99.90;;;;;;5075345;28;20040;-70
2021/10/04 09:55:48;;;;;;;7.88;1.80;;;15.10;99.90;;;;;;5073738;28;20044;-70
2021/10/04 09:58:21;;;;;;;3.08;1.60;;;15.10;99.90;;;;;;5073379;28;20049;-70
2021/10/04 10:00:50;;;;;;;8.85;2.08;;;15.20;99.90;;;;;;5074144;28;20044;-70
2021/10/04 10:03:19;;;;;;;6.03;2.42;;;15.30;99.90;;;;;;5074532;28;20542;-70
2021/10/04 10:05:47;;;;;;;6.80;1.75;;;15.30;99.90;;;;;;5074790;28;20039;-70
2021/10/04 10:08:14;;;;;;;7.00;2.67;;;15.30;99.90;;;;;;5074455;28;20041;-70
2021/10/04 10:10:43;;;;;;;8.93;1.73;;;15.40;99.90;;;;;;5074033;28;20039;-69
2021/10/04 10:13:13;;;;;;;8.77;2.03;;;15.40;99.90;;;;;;5074237;28;20040;-70
2021/10/04 10:15:41;;;;;;;6.50;1.83;;;15.40;99.90;;;;;;5074202;28;20040;-70
2021/10/04 10:18:21;;;;;;;3.70;1.48;;;15.50;99.90;;;;;;5074336;28;20047;-70
2021/10/04 10:20:54;;;;;;;6.13;1.50;;;15.40;99.90;;;;;;5072640;28;20051;-70
2021/10/04 10:23:47;;;;;;;5.68;2.00;;;15.50;99.90;;;;;;5074185;28;20040;-70
2021/10/04 10:26:30;;;;;;;7.25;1.50;;;15.40;99.90;;;;;;5073988;28;20393;-70
2021/10/04 10:29:08;;;;;;;4.82;1.42;;;15.50;99.90;;;;;;5073572;28;20036;-70
2021/10/04 10:31:53;;;;;;;6.22;1.65;;;15.60;99.90;;;;;;5072777;28;20044;-70
2021/10/04 10:34:27;;;;;;;4.60;2.17;;;15.60;99.90;;;;;;5072637;28;20123;-70
2021/10/04 10:36:59;;;;;;;3.42;1.38;;;15.70;99.90;;;;;;5072573;28;20045;-70
2021/10/04 10:39:35;;;;;;;6.30;1.63;;;15.70;99.90;;;;;;5072514;28;20053;-70
2021/10/04 10:42:31;;;;;;;5.30;1.83;;;15.70;99.90;;;;;;5074048;28;20093;-71
2021/10/04 10:44:56;;;;;;;4.80;1.50;;;16.00;99.90;;;;;;5072294;28;20040;-70
2021/10/04 10:47:37;;;;;;;4.43;1.42;;;16.10;99.90;;;;;;5072678;28;20138;-71
2021/10/04 10:50:17;;;;;;;13.00;1.70;;;16.20;99.90;;;;;;5054471;28;20051;-71
2021/10/04 10:53:13;;;;;;;5.55;1.63;;;16.30;99.90;;;;;;5073696;28;20045;-71
2021/10/04 10:55:42;;;;;;;4.93;1.40;;;16.40;99.90;;;;;;5071869;28;20572;-71
2021/10/04 10:58:13;;;;;;;5.63;1.70;;;16.40;99.90;;;;;;5073570;28;20080;-70
2021/10/04 11:00:46;;;;;;;4.20;1.73;;;16.40;99.90;;;;;;5073535;28;20036;-70
2021/10/04 11:03:22;;;;;;;8.35;1.77;;;16.50;99.90;;;;;;5072599;28;20516;-70
2021/10/04 11:06:06;;;;;;;3.90;1.77;;;16.50;99.90;;;;;;5072000;28;20496;-71
2021/10/04 11:08:34;;;;;;;5.10;1.15;;;16.60;99.90;;;;;;5072881;28;20515;-71
2021/10/04 11:11:00;;;;;;;2.35;1.05;;;16.50;99.90;;;;;;5071953;28;20044;-71
2021/10/04 11:13:27;;;;;;;6.53;1.15;;;16.60;99.90;;;;;;5073204;28;20032;-71
2021/10/04 11:15:56;;;;;;;2.25;0.90;;;16.50;99.90;;;;;;5073021;28;20405;-71
2021/10/04 11:18:23;;;;;;;7.47;1.63;;;16.50;99.90;;;;;;5073460;28;20119;-71
2021/10/04 11:21:00;;;;;;;8.50;1.40;;;16.60;99.90;;;;;;5073469;28;20048;-71
2021/10/04 11:23:26;;;;;;;5.40;0.90;;;16.70;99.90;;;;;;5071966;28;20481;-71
2021/10/04 11:25:55;;;;;;;5.72;1.67;;;16.70;99.90;;;;;;5073593;28;20082;-71
2021/10/04 11:28:39;;;;;;;5.38;1.05;;;16.70;99.90;;;;;;5071217;28;20041;-71
2021/10/04 11:31:07;;;;;;;8.68;1.48;;;16.70;99.90;;;;;;5072240;28;20076;-71
2021/10/04 11:33:46;;;;;;;4.35;0.80;;;16.70;99.90;;;;;;5073271;28;20489;-70
2021/10/04 11:36:13;;;;;;;5.53;1.17;;;16.70;99.90;;;;;;5073137;28;20473;-70
2021/10/04 11:39:00;;;;;;;5.90;1.00;;;16.60;99.90;;;;;;5072834;28;20429;-71
2021/10/04 11:41:32;;;;;;;4.25;0.90;;;16.60;99.90;;;;;;5072924;28;20055;-70
2021/10/04 11:44:00;;;;;;;9.75;1.55;;;16.60;99.90;;;;;;5071682;28;20115;-69
2021/10/04 11:46:28;;;;;;;5.72;0.95;;;16.60;99.90;;;;;;5073336;28;20169;-70
2021/10/04 11:49:11;;;;;;;5.90;1.00;;;16.70;99.90;;;;;;5072722;28;20045;-71
2021/10/04 11:51:50;;;;;;;6.38;1.38;;;16.70;99.90;;;;;;5074452;28;20041;-71
2021/10/04 11:54:41;;;;;;;4.32;0.95;;;16.70;99.90;;;;;;5073491;28;20120;-73
2021/10/04 11:57:16;;;;;;;3.90;0.75;;;16.80;99.90;;;;;;5073130;28;20037;-69
2021/10/04 11:59:48;;;;;;;4.22;1.02;;;16.70;99.90;;;;;;5072854;28;20454;-70
2021/10/04 12:02:26;;;;;;;3.25;0.63;;;16.80;99.90;;;;;;5072676;28;20433;-69
2021/10/04 12:05:06;;;;;;;2.65;1.00;;;16.80;99.90;;;;;;5071372;28;20070;-70
2021/10/04 12:07:32;;;;;;;6.60;1.23;;;16.70;99.90;;;;;;5072668;28;20041;-69
2021/10/04 12:09:57;;;;;;;9.25;1.83;;;16.70;99.90;;;;;;5072598;28;20083;-69
2021/10/04 12:12:35;;;;;;;7.00;0.75;;;16.80;99.90;;;;;;5073015;28;20496;-69
2021/10/04 12:15:04;;;;;;;3.40;0.80;;;16.90;99.90;;;;;;5073097;28;20366;-69
2021/10/04 12:17:38;;;;;;;5.28;0.90;;;16.80;99.90;;;;;;5055085;28;20048;-70
2021/10/04 12:20:05;;;;;;;5.47;0.75;;;16.80;99.90;;;;;;5072316;28;20048;-69
2021/10/04 12:22:33;;;;;;;3.85;0.90;;;16.70;99.90;;;;;;5072784;28;20037;-69
2021/10/04 12:24:59;;;;;;;7.78;1.23;;;16.80;99.90;;;;;;5072636;28;20042;-70
2021/10/04 12:27:25;;;;;;;6.70;0.93;;;16.70;99.90;;;;;;5071159;28;20397;-69
2021/10/04 12:29:58;;;;;;;3.08;0.88;;;16.70;99.90;;;;;;5072443;28;20048;-69
2021/10/04 12:32:58;;;;;;;6.38;1.00;;;16.70;99.90;;;;;;5072856;28;20040;-68
2021/10/04 12:35:26;;;;;;;2.75;0.80;;;16.80;99.90;;;;;;5069419;28;20053;-69
2021/10/04 12:37:57;;;;;;;3.75;0.73;;;16.80;99.90;;;;;;5072879;28;20399;-69
2021/10/04 12:40:26;;;;;;;4.20;0.80;;;16.90;99.90;;;;;;5072240;28;20044;-69
2021/10/04 12:42:56;;;;;;;2.40;0.75;;;17.00;99.90;;;;;;5074638;28;20048;-70
2021/10/04 12:45:22;;;;;;;6.97;0.85;;;17.00;99.90;;;;;;5075954;28;20496;-70
2021/10/04 12:48:04;;;;;;;4.35;0.70;;;16.90;99.90;;;;;;5076167;28;20075;-70
2021/10/04 12:50:36;;;;;;;6.30;1.25;;;16.90;99.90;;;;;;5074679;28;20071;-70